Schneifelwetter: Wetterstation Hallschlag, 537 m . NN
Wetterdaten: Dienstag, 07.06.2011
Datum Zeit Temp. A. Feuchte A. Luftdruck Regen Wind Richtung Richtung Sonnenschein Helligkeit T Regen Taupunkt Windchill
07.06.2011 00:00 14,2 C 89 % 1005 hPa 0,0 l/m 23,0 km/h (4 Bft) SW45 215 0 min 0 lux 0,00 min 12,4 C 8,0 C
07.06.2011 00:15 13,9 C 89 % 1005 hPa 0,0 l/m 21,5 km/h (4 Bft) SW45 230 0 min 0 lux 0,00 min 12,1 C 7,9 C
07.06.2011 00:30 13,6 C 90 % 1004 hPa 0,0 l/m 14,6 km/h (3 Bft) W-SW45 240 0 min 0 lux 0,00 min 12,0 C 9,6 C
07.06.2011 00:45 13,4 C 90 % 1004 hPa 0,0 l/m 15,2 km/h (3 Bft) W-SW45 245 0 min 0 lux 0,00 min 11,8 C 9,2 C
07.06.2011 01:00 13,2 C 91 % 1005 hPa 0,0 l/m 18,9 km/h (3 Bft) W-SW45 250 0 min 0 lux 0,00 min 11,8 C 7,7 C
07.06.2011 01:15 13,2 C 91 % 1005 hPa 0,0 l/m 19,4 km/h (3 Bft) W-SW22.5 250 0 min 0 lux 0,00 min 11,8 C 7,6 C
07.06.2011 01:30 13,2 C 91 % 1005 hPa 0,0 l/m 12,9 km/h (3 Bft) W-SW 250 0 min 0 lux 0,00 min 11,8 C 9,8 C
07.06.2011 01:45 13,3 C 91 % 1005 hPa 0,0 l/m 12,3 km/h (3 Bft) W-SW 250 0 min 0 lux 0,00 min 11,9 C 10,2 C
07.06.2011 02:01 13,3 C 91 % 1005 hPa 0,0 l/m 11,6 km/h (2 Bft) W22.5 275 0 min 0 lux 0,00 min 11,9 C 10,5 C
07.06.2011 02:16 13,2 C 91 % 1005 hPa 0,0 l/m 13,9 km/h (3 Bft) W22.5 260 0 min 0 lux 0,00 min 11,8 C 9,4 C
07.06.2011 02:31 13,1 C 91 % 1005 hPa 0,0 l/m 11,6 km/h (2 Bft) W-SW45 240 0 min 0 lux 0,00 min 11,7 C 10,3 C
07.06.2011 02:46 13,0 C 91 % 1005 hPa 0,0 l/m 11,1 km/h (2 Bft) W-SW 245 0 min 0 lux 0,00 min 11,6 C 10,4 C
07.06.2011 03:01 12,6 C 91 % 1005 hPa 0,0 l/m 4,6 km/h (1 Bft) W-SW 245 0 min 0 lux 0,00 min 11,2 C 12,6 C
07.06.2011 03:16 12,5 C 91 % 1005 hPa 0,0 l/m 0,2 km/h (0 Bft) W-SW 245 0 min 0 lux 0,00 min 11,1 C 12,5 C
07.06.2011 03:31 12,4 C 92 % 1005 hPa 0,0 l/m 6,7 km/h (2 Bft) W-SW 245 0 min 0 lux 0,00 min 11,1 C 12,2 C
07.06.2011 03:46 12,5 C 92 % 1005 hPa 0,0 l/m 5,6 km/h (1 Bft) W-SW 245 0 min 0 lux 0,00 min 11,2 C 12,5 C
07.06.2011 04:01 12,5 C 92 % 1005 hPa 0,0 l/m 7,8 km/h (2 Bft) W-SW 245 0 min 0 lux 0,00 min 11,2 C 11,6 C
07.06.2011 04:16 12,5 C 92 % 1005 hPa 0,0 l/m 8,3 km/h (2 Bft) W-SW 245 0 min 0 lux 0,00 min 11,2 C 11,3 C
07.06.2011 04:31 12,5 C 92 % 1005 hPa 0,0 l/m 10,0 km/h (2 Bft) W-SW 245 0 min 0 lux 0,00 min 11,2 C 10,4 C
07.06.2011 04:46 12,5 C 92 % 1005 hPa 0,0 l/m 10,6 km/h (2 Bft) W-SW 245 0 min 0 lux 0,00 min 11,2 C 10,1 C
07.06.2011 05:01 12,5 C 92 % 1005 hPa 0,0 l/m 8,1 km/h (2 Bft) W-SW 245 0 min 0 lux 0,00 min 11,2 C 11,4 C
07.06.2011 05:16 12,5 C 92 % 1005 hPa 0,0 l/m 11,6 km/h (2 Bft) W-SW 245 0 min 0 lux 0,00 min 11,2 C 9,6 C
07.06.2011 05:31 12,4 C 91 % 1005 hPa 0,0 l/m 10,1 km/h (2 Bft) W22.5 275 0 min 134 lux 0,00 min 11,0 C 10,2 C
07.06.2011 05:46 12,4 C 91 % 1005 hPa 0,0 l/m 11,1 km/h (2 Bft) W 265 0 min 349 lux 0,00 min 11,0 C 9,7 C
07.06.2011 06:01 12,4 C 91 % 1005 hPa 0,0 l/m 8,0 km/h (2 Bft) W 260 0 min 618 lux 0,00 min 11,0 C 11,4 C
07.06.2011 06:16 12,3 C 91 % 1005 hPa 0,0 l/m 13,1 km/h (3 Bft) W 260 0 min 1,14 klux 0,00 min 10,9 C 8,7 C
07.06.2011 06:31 12,3 C 91 % 1005 hPa 0,0 l/m 8,0 km/h (2 Bft) W 260 0 min 2,07 klux 0,00 min 10,9 C 11,3 C
07.06.2011 06:46 12,4 C 91 % 1005 hPa 0,0 l/m 9,4 km/h (2 Bft) W 260 0 min 2,06 klux 0,00 min 11,0 C 10,6 C
07.06.2011 07:01 12,4 C 91 % 1005 hPa 0,0 l/m 8,4 km/h (2 Bft) W 260 0 min 2,93 klux 0,00 min 11,0 C 11,1 C
07.06.2011 07:16 12,5 C 91 % 1005 hPa 0,0 l/m 9,7 km/h (2 Bft) W 260 0 min 4,05 klux 0,00 min 11,1 C 10,5 C
07.06.2011 07:31 12,8 C 91 % 1005 hPa 0,0 l/m 8,1 km/h (2 Bft) W 260 0 min 5,97 klux 0,00 min 11,4 C 11,7 C
07.06.2011 07:46 12,8 C 90 % 1005 hPa 0,0 l/m 7,7 km/h (2 Bft) W 260 0 min 9,8 klux 0,00 min 11,2 C 12,0 C
07.06.2011 08:01 13,2 C 89 % 1006 hPa 0,0 l/m 11,6 km/h (2 Bft) W-SW 255 0 min 11,0 klux 0,00 min 11,4 C 10,4 C
07.06.2011 08:16 13,6 C 88 % 1006 hPa 0,0 l/m 11,6 km/h (2 Bft) W-SW 240 0 min 13,8 klux 0,00 min 11,6 C 10,8 C
07.06.2011 08:31 13,9 C 87 % 1006 hPa 0,0 l/m 9,5 km/h (2 Bft) W-SW 240 0 min 15,3 klux 0,00 min 11,8 C 12,1 C
07.06.2011 08:45 14,3 C 85 % 1006 hPa 0,0 l/m 10,5 km/h (2 Bft) S-SW 205 0 min 16,5 klux 0,00 min 11,8 C 12,1 C
07.06.2011 09:01 14,7 C 84 % 1006 hPa 0,0 l/m 14,3 km/h (3 Bft) W45 260 0 min 20,3 klux 0,00 min 12,0 C 11,1 C
07.06.2011 09:16 15,3 C 82 % 1006 hPa 0,0 l/m 9,7 km/h (2 Bft) W-SW 250 0 min 26,6 klux 0,00 min 12,2 C 13,6 C
07.06.2011 09:31 15,6 C 79 % 1006 hPa 0,0 l/m 15,0 km/h (3 Bft) W-SW22.5 255 0 min 29,4 klux 0,00 min 12,0 C 11,9 C
07.06.2011 09:46 16,8 C 79 % 1006 hPa 0,0 l/m 1,0 km/h (0 Bft) W-SW 250 15 min 74,1 klux 0,00 min 13,1 C 16,8 C
07.06.2011 10:01 17,8 C 75 % 1006 hPa 0,0 l/m 7,4 km/h (2 Bft) S 180 15 min 85,3 klux 0,00 min 13,3 C 17,3 C
07.06.2011 10:15 18,6 C 73 % 1006 hPa 0,0 l/m 8,9 km/h (2 Bft) S-SO22.5 155 14 min 79,9 klux 0,00 min 13,7 C 17,5 C
07.06.2011 10:31 18,7 C 72 % 1006 hPa 0,0 l/m 6,6 km/h (2 Bft) W-SW45 240 16 min 81,2 klux 0,00 min 13,5 C 18,6 C
07.06.2011 10:46 18,9 C 71 % 1006 hPa 0,0 l/m 8,3 km/h (2 Bft) S-SW22.5 195 0 min 57,2 klux 0,00 min 13,5 C 18,1 C
07.06.2011 11:01 19,0 C 70 % 1006 hPa 0,0 l/m 10,0 km/h (2 Bft) SO22.5 145 0 min 46,1 klux 0,00 min 13,4 C 17,5 C
07.06.2011 11:16 19,2 C 71 % 1006 hPa 0,0 l/m 6,8 km/h (2 Bft) S22.5 175 0 min 46,0 klux 0,00 min 13,8 C 19,0 C
07.06.2011 11:31 19,2 C 70 % 1006 hPa 0,0 l/m 6,4 km/h (2 Bft) S 185 0 min 44,1 klux 0,00 min 13,6 C 19,2 C
07.06.2011 11:46 19,3 C 68 % 1006 hPa 0,0 l/m 9,8 km/h (2 Bft) W-SW22.5 250 0 min 38,2 klux 0,00 min 13,2 C 17,9 C
07.06.2011 12:00 19,1 C 69 % 1006 hPa 0,0 l/m 11,1 km/h (2 Bft) W-SW22.5 250 14 min 67,5 klux 0,00 min 13,3 C 17,3 C
07.06.2011 12:16 19,9 C 68 % 1006 hPa 0,0 l/m 0,0 km/h (0 Bft) W 280 16 min 108 klux 0,00 min 13,8 C 19,9 C
07.06.2011 12:31 20,3 C 67 % 1006 hPa 0,0 l/m 8,8 km/h (2 Bft) S-SO 155 15 min 94,6 klux 0,00 min 14,0 C 19,4 C
07.06.2011 12:46 20,4 C 66 % 1006 hPa 0,0 l/m 10,1 km/h (2 Bft) S-SW45 200 15 min 98,1 klux 0,00 min 13,8 C 19,1 C
07.06.2011 13:01 20,2 C 69 % 1005 hPa 0,0 l/m 6,8 km/h (2 Bft) S-SO 150 15 min 103 klux 0,00 min 14,3 C 20,0 C
07.06.2011 13:16 21,0 C 66 % 1005 hPa 0,0 l/m 12,6 km/h (3 Bft) W-SW45 245 15 min 103 klux 0,00 min 14,4 C 19,0 C
07.06.2011 13:31 21,2 C 65 % 1005 hPa 0,0 l/m 8,5 km/h (2 Bft) S-SO22.5 150 15 min 98,9 klux 0,00 min 14,4 C 20,4 C
07.06.2011 13:46 21,0 C 66 % 1005 hPa 0,0 l/m 12,1 km/h (2 Bft) S-SW67.5 195 15 min 104 klux 0,00 min 14,4 C 19,2 C
07.06.2011 14:01 21,6 C 64 % 1005 hPa 0,0 l/m 8,9 km/h (2 Bft) S45 180 15 min 111 klux 0,00 min 14,5 C 20,7 C
07.06.2011 14:16 21,8 C 63 % 1005 hPa 0,0 l/m 6,7 km/h (2 Bft) S 170 15 min 111 klux 0,00 min 14,4 C 21,7 C
07.06.2011 14:31 21,6 C 62 % 1005 hPa 0,0 l/m 6,0 km/h (2 Bft) S-SW45 195 15 min 104 klux 0,00 min 14,0 C 21,6 C
07.06.2011 14:46 22,5 C 62 % 1005 hPa 0,0 l/m 10,5 km/h (2 Bft) S-SW22.5 200 15 min 108 klux 0,00 min 14,8 C 21,3 C
07.06.2011 15:01 22,3 C 61 % 1005 hPa 0,0 l/m 9,7 km/h (2 Bft) W-SW22.5 255 0 min 42,3 klux 0,00 min 14,4 C 21,3 C
07.06.2011 15:15 21,8 C 62 % 1005 hPa 0,0 l/m 0,4 km/h (0 Bft) W-SW 240 14 min 84,2 klux 0,00 min 14,2 C 21,8 C
07.06.2011 15:31 21,8 C 61 % 1005 hPa 0,0 l/m 6,5 km/h (2 Bft) W22.5 280 0 min 54,7 klux 0,00 min 13,9 C 21,8 C
07.06.2011 15:46 22,2 C 59 % 1005 hPa 0,0 l/m 8,0 km/h (2 Bft) SW45 225 15 min 67,3 klux 0,00 min 13,8 C 21,7 C
07.06.2011 16:01 22,2 C 59 % 1004 hPa 0,0 l/m 8,9 km/h (2 Bft) S-SO22.5 150 15 min 77,3 klux 0,00 min 13,8 C 21,4 C
07.06.2011 16:16 22,4 C 60 % 1004 hPa 0,0 l/m 11,1 km/h (2 Bft) S67.5 190 0 min 47,5 klux 0,00 min 14,2 C 21,0 C
07.06.2011 16:31 22,4 C 59 % 1004 hPa 0,0 l/m 11,5 km/h (2 Bft) S-SW22.5 205 0 min 41,6 klux 0,00 min 14,0 C 20,9 C
07.06.2011 16:46 22,6 C 59 % 1004 hPa 0,0 l/m 9,2 km/h (2 Bft) S22.5 170 15 min 79,3 klux 0,00 min 14,2 C 21,7 C
07.06.2011 17:01 22,8 C 58 % 1004 hPa 0,0 l/m 11,0 km/h (2 Bft) SW22.5 225 15 min 72,3 klux 0,00 min 14,1 C 21,5 C
07.06.2011 17:16 22,8 C 59 % 1004 hPa 0,0 l/m 12,5 km/h (3 Bft) S22.5 175 15 min 68,6 klux 0,00 min 14,4 C 21,1 C
07.06.2011 17:31 22,2 C 59 % 1004 hPa 0,0 l/m 6,5 km/h (2 Bft) S-SW 205 0 min 22,9 klux 0,00 min 13,8 C 22,2 C
07.06.2011 17:46 22,1 C 60 % 1004 hPa 0,0 l/m 0,0 km/h (0 Bft) S-SW 200 0 min 48,8 klux 0,00 min 14,0 C 22,1 C
07.06.2011 18:01 22,0 C 59 % 1004 hPa 0,0 l/m 8,9 km/h (2 Bft) O-SO67.5 105 0 min 25,9 klux 0,00 min 13,6 C 21,2 C
07.06.2011 18:16 21,5 C 63 % 1003 hPa 0,0 l/m 16,9 km/h (3 Bft) N-NO45 30 0 min 59,9 klux 0,00 min 14,2 C 18,7 C
07.06.2011 18:30 20,8 C 66 % 1003 hPa 0,0 l/m 18,3 km/h (3 Bft) N-NO45 25 0 min 38,0 klux 0,00 min 14,2 C 17,5 C
07.06.2011 18:46 20,8 C 66 % 1003 hPa 0,0 l/m 10,6 km/h (2 Bft) O45 90 0 min 17,8 klux 0,00 min 14,2 C 19,3 C
07.06.2011 19:01 20,5 C 66 % 1003 hPa 0,0 l/m 12,7 km/h (3 Bft) O-NO45 70 0 min 17,3 klux 0,00 min 13,9 C 18,4 C
07.06.2011 19:16 20,4 C 68 % 1003 hPa 0,0 l/m 10,1 km/h (2 Bft) O45 80 0 min 34,8 klux 0,00 min 14,3 C 19,1 C
07.06.2011 19:31 20,8 C 67 % 1003 hPa 0,0 l/m 13,5 km/h (3 Bft) NO45 45 0 min 27,3 klux 0,00 min 14,4 C 18,6 C
07.06.2011 19:46 20,2 C 68 % 1003 hPa 0,0 l/m 16,2 km/h (3 Bft) O-NO22.5 75 0 min 15,2 klux 0,00 min 14,1 C 17,2 C
07.06.2011 20:00 19,7 C 69 % 1003 hPa 0,0 l/m 14,2 km/h (3 Bft) NO22.5 55 0 min 11,4 klux 0,00 min 13,8 C 17,1 C
07.06.2011 20:16 19,4 C 70 % 1003 hPa 0,0 l/m 10,5 km/h (2 Bft) O-NO45 60 0 min 8,99 klux 0,00 min 13,8 C 17,8 C
07.06.2011 20:31 19,2 C 71 % 1003 hPa 0,0 l/m 6,4 km/h (2 Bft) O 100 0 min 7,41 klux 0,00 min 13,8 C 19,2 C
07.06.2011 20:46 18,7 C 73 % 1003 hPa 0,0 l/m 7,4 km/h (2 Bft) O22.5 80 0 min 4,93 klux 0,00 min 13,8 C 18,2 C
07.06.2011 21:01 18,3 C 75 % 1003 hPa 0,0 l/m 13,2 km/h (3 Bft) N-NO22.5 25 0 min 1,65 klux 0,00 min 13,8 C 15,7 C
07.06.2011 21:16 17,9 C 77 % 1003 hPa 0,0 l/m 14,6 km/h (3 Bft) N-NO22.5 30 0 min 848 lux 0,00 min 13,8 C 14,8 C
07.06.2011 21:31 17,7 C 77 % 1003 hPa 0,0 l/m 10,3 km/h (2 Bft) NO22.5 55 0 min 574 lux 0,00 min 13,6 C 16,0 C
07.06.2011 21:46 17,4 C 78 % 1003 hPa 0,0 l/m 10,0 km/h (2 Bft) O22.5 80 0 min 208 lux 0,00 min 13,5 C 15,8 C
07.06.2011 22:01 17,0 C 73 % 1004 hPa 0,0 l/m 42,9 km/h (6 Bft) W45 275 0 min 26 lux 0,00 min 12,1 C 9,0 C
07.06.2011 22:16 15,3 C 79 % 1005 hPa 6,6 l/m 34,2 km/h (5 Bft) W67.5 270 0 min 0 lux 15,00 min 11,7 C 7,5 C
07.06.2011 22:31 14,1 C 83 % 1005 hPa 3,6 l/m 9,4 km/h (2 Bft) S22.5 175 0 min 0 lux 15,00 min 11,3 C 12,4 C
07.06.2011 22:46 13,6 C 87 % 1005 hPa 0,9 l/m 10,5 km/h (2 Bft) W22.5 270 0 min 0 lux 15,00 min 11,5 C 11,3 C
07.06.2011 23:01 13,2 C 89 % 1004 hPa 0,9 l/m 10,6 km/h (2 Bft) W45 280 0 min 0 lux 15,00 min 11,4 C 10,8 C
07.06.2011 23:16 13,0 C 89 % 1004 hPa 2,1 l/m 7,4 km/h (2 Bft) W-NW22.5 285 0 min 0 lux 15,00 min 11,2 C 12,4 C
07.06.2011 23:31 13,0 C 89 % 1004 hPa 1,5 l/m 0,0 km/h (0 Bft) W 270 0 min 0 lux 15,00 min 11,2 C 13,0 C
07.06.2011 23:46 13,0 C 89 % 1004 hPa 0,6 l/m 0,0 km/h (0 Bft) W 270 0 min 0 lux 15,00 min 11,2 C 13,0 C
_ Min-Zeit 06:16 17:01 18:16 - 12:16 - - - - - 06:16 22:16
Minimum _ 12,3 C 58 % 1003 hPa - 0,0 km/h (0 Bft) - - - - - 10,9 C 7,5 C
_ Max-Zeit 17:01 03:31 08:01 22:16 22:01 - - 10:31 14:01 22:16 14:46 17:31
Maximum _ 22,8 C 92 % 1006 hPa 6,6 l/m 42,9 km/h
W (6 Bft)
- - 16 min 111 klux 15,00 min 14,8 C 22,2 C
Durchschnitt _ 16,9 C 78 % 1005 hPa #16,2 l/m 10,5 km/h (2 Bft) W-SW - #5:29 h 30,3 klux #1:45 h 12,7 C 15,1 C